M I D A S
Marine Information and Data Acquisition System
Tripno 2146 of the Zeeleeuw from 2011-07-15 08:13:18 to 2011-07-15 12:50:18
Back to CruiseResearch ActivitiesStationsMapUnderway DataData graphs

EquipmentUnitsComment
TimeDGPSUTC
LatitudeDGPSDM.mWGS84
LongitudeDGPSDM.mWGS84
HeadingGyrodeg 
SOGDGPSknotsSpeed over ground
COGDGPSdegCourse over ground
DepthEcho soundermeters200 kHz
Missing or incorrect values are displayed as -999
Navigation data collected by the RV Zeeleeuw from 2011-07-15 03:36:13 to 2011-07-15 12:59:38
Time Latitude Longitude Heading SOG COG Depth
2011-07-15 03:37:19 51°13.646 2°56.008 126.4 0.2 343 -999
2011-07-15 03:38:19 51°13.65 2°56.005 126.4 0.2 342 -999
2011-07-15 03:39:19 51°13.652 2°56.006 126.1 0.2 340 -999
2011-07-15 03:39:44 51°13.653 2°56.006 126.7 -999 343 -999
2011-07-15 03:41:18 51°13.653 2°56.006 126.8 -999 161 -999
2011-07-15 03:42:18 51°13.636 2°56.016 126.6 0.1 247 -999
2011-07-15 03:43:19 51°13.636 2°56.016 126.4 -999 163 -999
2011-07-15 03:44:18 51°13.636 2°56.016 126.4 -999 113 -999
2011-07-15 03:45:19 51°13.635 2°56.016 126.3 0.1 307 -999
2011-07-15 03:46:19 51°13.635 2°56.016 126.5 -999 344 -999
2011-07-15 03:47:18 51°13.635 2°56.016 126.6 -999 59 -999
2011-07-15 03:48:18 51°13.635 2°56.017 126.6 -999 64 -999
2011-07-15 03:49:19 51°13.635 2°56.017 126.3 -999 100 -999
2011-07-15 03:50:18 51°13.635 2°56.017 126.1 -999 232 -999
2011-07-15 03:51:18 51°13.636 2°56.016 125.5 -999 231 -999
2011-07-15 03:52:19 51°13.635 2°56.016 125.2 -999 297 -999
2011-07-15 03:53:18 51°13.635 2°56.016 125.3 -999 58 -999
2011-07-15 03:54:18 51°13.635 2°56.017 126.2 -999 105 -999
2011-07-15 03:55:18 51°13.635 2°56.017 126 -999 330 -999
2011-07-15 03:56:18 51°13.636 2°56.017 126.4 -999 146 -999
2011-07-15 03:57:18 51°13.636 2°56.016 126.5 -999 308 -999
2011-07-15 03:58:19 51°13.636 2°56.015 126.5 -999 47 -999
2011-07-15 03:59:18 51°13.636 2°56.015 126.5 -999 36 -999
2011-07-15 04:00:18 51°13.636 2°56.015 126.5 -999 351 -999
2011-07-15 04:01:19 51°13.636 2°56.016 126.3 -999 248 -999
2011-07-15 04:02:18 51°13.636 2°56.015 126.4 -999 289 -999
2011-07-15 04:03:18 51°13.636 2°56.016 125.9 0.1 229 -999
2011-07-15 04:04:18 51°13.636 2°56.016 126.1 -999 242 -999
2011-07-15 04:05:19 51°13.637 2°56.016 126.1 -999 185 -999
2011-07-15 04:06:18 51°13.636 2°56.016 126.4 -999 292 -999
2011-07-15 04:07:18 51°13.636 2°56.016 126.4 -999 49 -999
2011-07-15 04:08:18 51°13.636 2°56.015 126.4 -999 340 -999
2011-07-15 04:09:18 51°13.636 2°56.015 126.1 -999 214 -999
2011-07-15 04:10:18 51°13.636 2°56.015 125.7 -999 152 -999
2011-07-15 04:11:18 51°13.636 2°56.016 126.7 -999 356 -999
2011-07-15 04:12:18 51°13.637 2°56.016 126.9 -999 265 -999
2011-07-15 04:13:18 51°13.637 2°56.017 126.4 -999 207 -999
2011-07-15 04:14:18 51°13.637 2°56.017 126.2 -999 174 -999
2011-07-15 04:15:18 51°13.637 2°56.017 126 -999 350 -999
2011-07-15 04:16:18 51°13.636 2°56.017 126.5 -999 164 -999
2011-07-15 04:17:18 51°13.636 2°56.018 126.3 -999 153 -999
2011-07-15 04:18:19 51°13.637 2°56.019 126.6 -999 160 -999
2011-07-15 04:19:18 51°13.637 2°56.02 126.2 -999 177 -999
2011-07-15 04:20:18 51°13.637 2°56.02 126.1 -999 199 -999
2011-07-15 04:21:19 51°13.636 2°56.02 125.3 -999 241 -999
2011-07-15 04:22:19 51°13.636 2°56.019 125.7 -999 170 -999
2011-07-15 04:23:18 51°13.636 2°56.019 126.1 -999 257 -999
2011-07-15 04:24:19 51°13.636 2°56.019 126.4 -999 242 -999
2011-07-15 04:25:18 51°13.636 2°56.018 126.1 -999 105 -999
2011-07-15 04:26:19 51°13.636 2°56.017 125.4 -999 64 -999
2011-07-15 04:27:18 51°13.636 2°56.016 124.9 -999 252 -999
2011-07-15 04:28:18 51°13.636 2°56.016 125.6 -999 182 -999
2011-07-15 04:29:19 51°13.636 2°56.017 125.3 -999 24 -999
2011-07-15 04:30:18 51°13.636 2°56.017 127.2 -999 210 -999
2011-07-15 04:31:18 51°13.636 2°56.017 125.1 -999 14 -999
2011-07-15 04:32:18 51°13.636 2°56.017 123.5 -999 293 -999
2011-07-15 04:33:19 51°13.636 2°56.017 124.2 -999 51 -999
2011-07-15 04:34:18 51°13.636 2°56.017 124.9 0.1 345 -999
2011-07-15 04:35:18 51°13.636 2°56.018 125.7 -999 14 -999
2011-07-15 04:36:18 51°13.636 2°56.018 126.3 -999 357 -999
2011-07-15 04:37:19 51°13.636 2°56.018 125.8 -999 315 -999
2011-07-15 04:38:18 51°13.636 2°56.018 124.3 -999 219 -999
2011-07-15 04:39:19 51°13.637 2°56.017 124.6 -999 21 -999
2011-07-15 04:40:18 51°13.636 2°56.017 126.2 -999 110 -999
2011-07-15 04:41:19 51°13.636 2°56.017 125.3 -999 200 -999
2011-07-15 04:42:18 51°13.636 2°56.017 126.2 -999 184 -999
2011-07-15 04:43:19 51°13.637 2°56.016 125.7 0.1 270 -999
2011-07-15 04:44:19 51°13.637 2°56.016 125.2 -999 182 -999
2011-07-15 04:45:18 51°13.637 2°56.016 125.1 0.1 4 -999
2011-07-15 04:46:18 51°13.636 2°56.018 124.9 -999 240 -999
2011-07-15 04:47:18 51°13.637 2°56.018 124.9 -999 254 -999
2011-07-15 04:48:18 51°13.637 2°56.018 126.3 -999 338 -999
2011-07-15 04:49:18 51°13.637 2°56.018 126 -999 271 -999
2011-07-15 04:50:19 51°13.637 2°56.018 126.1 -999 221 -999
2011-07-15 04:51:18 51°13.637 2°56.018 125.6 -999 60 -999
2011-07-15 04:52:19 51°13.637 2°56.018 125.4 -999 158 -999
2011-07-15 04:53:18 51°13.636 2°56.018 124.9 -999 328 -999
2011-07-15 04:54:18 51°13.637 2°56.017 124.8 -999 98 -999
2011-07-15 04:55:18 51°13.637 2°56.016 125.7 0.1 181 -999
2011-07-15 04:56:18 51°13.638 2°56.016 124.8 -999 15 -999
2011-07-15 04:57:19 51°13.638 2°56.015 124.5 -999 52 -999
2011-07-15 04:58:19 51°13.638 2°56.015 124 0.1 150 -999
2011-07-15 04:59:18 51°13.637 2°56.015 124.7 -999 283 -999
2011-07-15 05:00:18 51°13.637 2°56.016 124.9 -999 100 -999
2011-07-15 05:01:19 51°13.637 2°56.016 124.6 -999 143 -999
2011-07-15 05:02:19 51°13.637 2°56.016 124.3 -999 305 -999
2011-07-15 05:03:18 51°13.636 2°56.016 125.8 -999 165 -999
2011-07-15 05:04:18 51°13.637 2°56.016 125.3 -999 143 -999
2011-07-15 05:05:18 51°13.637 2°56.016 126 0.1 206 -999
2011-07-15 05:06:19 51°13.636 2°56.017 125.7 0.1 93 -999
2011-07-15 05:07:18 51°13.636 2°56.017 125.5 0.1 210 -999
2011-07-15 05:08:19 51°13.636 2°56.017 125.7 -999 277 -999
2011-07-15 05:09:19 51°13.636 2°56.018 125.2 0.1 15 -999
2011-07-15 05:10:18 51°13.636 2°56.017 125.1 -999 255 -999
2011-07-15 05:11:18 51°13.636 2°56.017 125.2 -999 291 -999
2011-07-15 05:12:19 51°13.636 2°56.018 125.5 -999 336 -999
2011-07-15 05:13:19 51°13.636 2°56.017 125.3 -999 345 -999
2011-07-15 05:14:19 51°13.636 2°56.017 124.9 -999 54 -999
2011-07-15 05:15:18 51°13.636 2°56.017 124.6 -999 193 -999
2011-07-15 05:16:19 51°13.636 2°56.018 124.8 -999 158 -999
2011-07-15 05:17:19 51°13.636 2°56.018 124.9 0.1 131 -999
2011-07-15 05:18:18 51°13.636 2°56.017 124.9 -999 295 -999
2011-07-15 05:19:19 51°13.636 2°56.018 126.3 -999 22 -999
2011-07-15 05:20:18 51°13.635 2°56.018 126.2 -999 220 -999
2011-07-15 05:21:19 51°13.635 2°56.018 125.9 -999 219 -999
2011-07-15 05:22:19 51°13.636 2°56.018 126.2 0.1 174 -999
2011-07-15 05:23:19 51°13.636 2°56.018 125.7 -999 213 -999
2011-07-15 05:24:19 51°13.636 2°56.017 126.4 0.1 314 -999
2011-07-15 05:25:19 51°13.635 2°56.018 126.4 -999 40 -999
2011-07-15 05:26:19 51°13.636 2°56.017 126.5 0.1 224 -999
2011-07-15 05:27:19 51°13.635 2°56.017 126.5 -999 189 -999
2011-07-15 05:28:19 51°13.636 2°56.017 126.5 -999 264 -999
2011-07-15 05:29:19 51°13.636 2°56.017 126.5 0.1 179 -999
2011-07-15 05:30:19 51°13.637 2°56.016 126.5 0.1 16 -999
2011-07-15 05:31:19 51°13.637 2°56.016 126.5 -999 328 -999
2011-07-15 05:32:19 51°13.637 2°56.016 126.5 -999 237 -999
2011-07-15 05:33:18 51°13.637 2°56.015 126.4 -999 304 -999
2011-07-15 05:34:19 51°13.637 2°56.015 126.3 -999 133 -999
2011-07-15 05:35:19 51°13.637 2°56.015 126.2 -999 350 -999
2011-07-15 05:36:18 51°13.637 2°56.016 126.2 -999 116 -999
2011-07-15 05:37:18 51°13.637 2°56.016 126.3 -999 195 -999
2011-07-15 05:38:18 51°13.637 2°56.017 126.3 0.1 328 -999
2011-07-15 05:39:19 51°13.637 2°56.018 126.2 0.1 162 -999
2011-07-15 05:40:19 51°13.637 2°56.018 126 -999 313 -999
2011-07-15 05:41:19 51°13.637 2°56.018 125.9 0.1 190 -999
2011-07-15 05:42:18 51°13.637 2°56.018 125.9 -999 105 -999
2011-07-15 05:43:19 51°13.637 2°56.018 125.8 -999 87 -999
2011-07-15 05:44:19 51°13.637 2°56.019 125.7 0.1 158 -999
2011-07-15 05:45:18 51°13.638 2°56.018 125.6 0.1 197 -999
2011-07-15 05:46:19 51°13.639 2°56.017 125.6 0.1 176 -999
2011-07-15 05:47:18 51°13.64 2°56.016 125.3 -999 116 -999
2011-07-15 05:48:19 51°13.641 2°56.015 125.2 0.1 333 -999
2011-07-15 05:49:19 51°13.639 2°56.016 125.2 0.1 318 -999
2011-07-15 05:50:19 51°13.639 2°56.016 125.2 -999 177 -999
2011-07-15 05:51:19 51°13.639 2°56.016 125.1 0.1 160 -999
2011-07-15 05:52:19 51°13.638 2°56.015 124.9 -999 246 -999
2011-07-15 05:53:19 51°13.636 2°56.016 124.8 -999 269 -999
2011-07-15 05:54:19 51°13.637 2°56.016 124.6 -999 192 -999
2011-07-15 05:55:18 51°13.637 2°56.015 124.5 -999 277 -999
2011-07-15 05:56:19 51°13.639 2°56.014 124.5 -999 196 -999
2011-07-15 05:57:19 51°13.639 2°56.015 124.4 0.1 236 -999
2011-07-15 05:58:18 51°13.637 2°56.017 124.4 -999 180 -999
2011-07-15 05:59:19 51°13.638 2°56.016 124.3 0.1 268 -999
2011-07-15 06:00:19 51°13.637 2°56.017 124.3 0.1 167 -999
2011-07-15 06:01:19 51°13.637 2°56.016 124.5 0.1 316 -999
2011-07-15 06:02:19 51°13.638 2°56.015 124.4 0.1 139 -999
2011-07-15 06:03:19 51°13.637 2°56.016 124.3 0.1 319 -999
2011-07-15 06:04:19 51°13.638 2°56.016 124.2 0.2 323 -999
2011-07-15 06:05:19 51°13.638 2°56.016 124.2 0.1 336 -999
2011-07-15 06:06:19 51°13.637 2°56.017 125.7 0.1 234 -999
2011-07-15 06:07:19 51°13.638 2°56.016 121.7 0.1 270 -999
2011-07-15 06:08:19 51°13.638 2°56.016 122 -999 188 -999
2011-07-15 06:09:19 51°13.638 2°56.016 121.9 -999 330 -999
2011-07-15 06:10:19 51°13.637 2°56.017 122.7 -999 256 -999
2011-07-15 06:11:19 51°13.639 2°56.017 123.3 -999 90 -999
2011-07-15 06:12:19 51°13.637 2°56.018 122.8 -999 67 -999
2011-07-15 06:13:19 51°13.643 2°56.014 123.2 -999 220 -999
2011-07-15 06:14:18 51°13.63 2°56.023 123.6 -999 241 -999
2011-07-15 06:15:19 51°13.632 2°56.022 123.8 -999 143 -999
2011-07-15 06:16:19 51°13.633 2°56.021 124 -999 158 -999
2011-07-15 06:17:18 51°13.638 2°56.016 124.1 0.1 309 -999
2011-07-15 06:18:19 51°13.633 2°56.021 124.1 -999 289 -999
2011-07-15 06:19:18 51°13.635 2°56.019 124.2 -999 136 -999
2011-07-15 06:20:19 51°13.636 2°56.018 124.3 -999 230 -999
2011-07-15 06:21:19 51°13.637 2°56.017 124.3 -999 310 -999
2011-07-15 06:22:18 51°13.636 2°56.017 124.4 -999 302 -999
2011-07-15 06:23:19 51°13.638 2°56.015 124.5 -999 247 -999
2011-07-15 06:24:19 51°13.638 2°56.015 124.5 -999 336 -999
2011-07-15 06:25:18 51°13.633 2°56.019 124.6 0.1 146 -999
2011-07-15 06:26:19 51°13.634 2°56.019 124.6 -999 29 -999
2011-07-15 06:27:18 51°13.636 2°56.016 124.8 -999 83 -999
2011-07-15 06:28:19 51°13.637 2°56.015 125 -999 40 -999
2011-07-15 06:29:19 51°13.635 2°56.016 125.3 0.1 158 -999
2011-07-15 06:30:18 51°13.636 2°56.016 125.4 0.1 327 -999
2011-07-15 06:31:19 51°13.634 2°56.018 125.6 0.1 357 -999
2011-07-15 06:32:19 51°13.633 2°56.019 125.7 -999 340 -999
2011-07-15 06:33:18 51°13.633 2°56.019 125.7 0.1 143 -999
2011-07-15 06:34:19 51°13.635 2°56.018 125.7 -999 313 -999
2011-07-15 06:35:19 51°13.636 2°56.017 125.8 -999 335 -999
2011-07-15 06:36:19 51°13.636 2°56.017 125.9 -999 330 -999
2011-07-15 06:37:19 51°13.635 2°56.017 125.9 0.1 156 -999
2011-07-15 06:38:18 51°13.635 2°56.018 125.9 0.1 123 -999
2011-07-15 06:39:19 51°13.634 2°56.019 125.9 -999 288 -999
2011-07-15 06:40:19 51°13.636 2°56.019 125.9 0.1 324 -999
2011-07-15 06:41:18 51°13.636 2°56.019 125.7 -999 33 -999
2011-07-15 06:42:19 51°13.636 2°56.019 125.8 0.1 324 -999
2011-07-15 06:43:18 51°13.638 2°56.018 125.8 -999 102 -999
2011-07-15 06:44:19 51°13.639 2°56.018 125.8 -999 84 -999
2011-07-15 06:45:19 51°13.638 2°56.019 125.6 -999 229 -999
2011-07-15 06:46:18 51°13.637 2°56.019 125.6 -999 155 -999
2011-07-15 06:47:19 51°13.636 2°56.019 125.7 0.1 326 -999
2011-07-15 06:48:19 51°13.636 2°56.019 125.8 -999 220 -999
2011-07-15 06:49:19 51°13.635 2°56.018 125.8 -999 214 -999
2011-07-15 06:50:19 51°13.635 2°56.018 125.7 -999 275 -999
2011-07-15 06:51:18 51°13.634 2°56.018 125.7 -999 38 -999
2011-07-15 06:52:19 51°13.635 2°56.018 125.7 -999 120 -999
2011-07-15 06:53:19 51°13.636 2°56.019 125.7 -999 49 -999
2011-07-15 06:54:19 51°13.636 2°56.02 125.6 -999 126 -999
2011-07-15 06:55:19 51°13.637 2°56.019 125.7 -999 273 -999
2011-07-15 06:56:19 51°13.637 2°56.019 125.7 -999 305 -999
2011-07-15 06:57:19 51°13.637 2°56.02 125.6 -999 270 -999
2011-07-15 06:58:19 51°13.636 2°56.02 124.9 -999 170 -999
2011-07-15 06:59:19 51°13.636 2°56.019 125.1 -999 171 -999
2011-07-15 07:00:19 51°13.636 2°56.019 125.2 0.1 178 -999
2011-07-15 07:01:19 51°13.636 2°56.019 125.2 -999 212 -999
2011-07-15 07:02:19 51°13.636 2°56.018 125.7 0.1 327 -999
2011-07-15 07:03:19 51°13.637 2°56.017 125.7 -999 355 -999
2011-07-15 07:04:18 51°13.634 2°56.029 125.7 0.1 128 -999
2011-07-15 07:05:19 51°13.635 2°56.027 125.7 0.1 286 -999
2011-07-15 07:06:18 51°13.633 2°56.031 125.7 0.1 148 -999
2011-07-15 07:07:19 51°13.635 2°56.028 125.8 0.1 343 -999
2011-07-15 07:08:18 51°13.635 2°56.028 124.9 -999 242 -999
2011-07-15 07:09:18 51°13.636 2°56.022 125.9 0.1 324 -999
2011-07-15 07:10:18 51°13.641 2°55.996 125.9 -999 28 -999
2011-07-15 07:11:18 51°13.64 2°56.008 125.9 -999 294 -999
2011-07-15 07:12:18 51°13.638 2°56.017 125.9 -999 11 -999
2011-07-15 07:13:18 51°13.637 2°56.017 125.8 -999 194 -999
2011-07-15 07:14:18 51°13.638 2°56.018 125.8 -999 9 -999
2011-07-15 07:15:19 51°13.637 2°56.017 125.8 -999 310 -999
2011-07-15 07:16:18 51°13.636 2°56.016 125.8 -999 191 -999
2011-07-15 07:17:18 51°13.636 2°56.017 125.7 -999 8 -999
2011-07-15 07:18:18 51°13.637 2°56.016 124.7 -999 77 -999
2011-07-15 07:19:18 51°13.637 2°56.017 126.1 0.1 47 -999
2011-07-15 07:20:18 51°13.637 2°56.017 125 -999 260 -999
2011-07-15 07:21:18 51°13.637 2°56.017 124.9 -999 23 -999
2011-07-15 07:22:18 51°13.637 2°56.018 125.5 -999 206 -999
2011-07-15 07:23:18 51°13.637 2°56.018 125.7 -999 105 -999
2011-07-15 07:24:18 51°13.636 2°56.018 125.5 -999 43 -999
2011-07-15 07:25:18 51°13.636 2°56.017 125.2 -999 2 -999
2011-07-15 07:26:18 51°13.636 2°56.017 125.2 -999 278 -999
2011-07-15 07:27:18 51°13.636 2°56.016 125.3 -999 193 -999
2011-07-15 07:28:18 51°13.636 2°56.016 124.9 -999 200 -999
2011-07-15 07:29:18 51°13.636 2°56.016 124.9 -999 121 -999
2011-07-15 07:30:18 51°13.637 2°56.017 124.9 -999 246 -999
2011-07-15 07:31:19 51°13.636 2°56.018 125.2 -999 68 -999
2011-07-15 07:32:18 51°13.636 2°56.018 125.1 -999 314 -999
2011-07-15 07:33:18 51°13.636 2°56.018 125.2 -999 227 -999
2011-07-15 07:34:18 51°13.636 2°56.018 125.1 -999 241 -999
2011-07-15 07:35:18 51°13.636 2°56.018 125.1 -999 227 -999
2011-07-15 07:36:18 51°13.636 2°56.017 124.8 -999 88 -999
2011-07-15 07:37:17 51°13.637 2°56.017 124.6 -999 338 6.6
2011-07-15 07:38:15 51°13.637 2°56.017 124.5 -999 222 6.7
2011-07-15 07:39:15 51°13.637 2°56.018 124.5 -999 78 6.7
2011-07-15 07:40:15 51°13.637 2°56.018 124.5 -999 232 6.7
2011-07-15 07:41:15 51°13.637 2°56.018 124.4 -999 166 6.7
2011-07-15 07:42:15 51°13.637 2°56.018 124.2 -999 41 6.7
2011-07-15 07:43:15 51°13.636 2°56.018 124.1 -999 91 6.7
2011-07-15 07:44:15 51°13.636 2°56.018 125.1 -999 235 6.7
2011-07-15 07:45:15 51°13.636 2°56.018 125.3 -999 261 6.7
2011-07-15 07:46:15 51°13.636 2°56.017 125.7 -999 42 -999
2011-07-15 07:47:15 51°13.636 2°56.016 125.8 -999 236 6.7
2011-07-15 07:48:15 51°13.636 2°56.016 125.7 -999 283 6.7
2011-07-15 07:49:15 51°13.636 2°56.016 125.6 -999 92 6.7
2011-07-15 07:50:17 51°13.636 2°56.016 125.5 -999 252 6.7
2011-07-15 07:51:16 51°13.636 2°56.017 125.5 -999 35 6.7
2011-07-15 07:52:18 51°13.636 2°56.017 125.6 -999 263 -999
2011-07-15 07:53:16 51°13.637 2°56.017 125.6 -999 66 6.7
2011-07-15 07:54:16 51°13.637 2°56.018 125.6 -999 263 6.8
2011-07-15 07:55:15 51°13.637 2°56.018 125.8 -999 164 6.7
2011-07-15 07:56:15 51°13.637 2°56.018 125 -999 244 6.8
2011-07-15 07:57:15 51°13.637 2°56.018 124.8 -999 225 6.8
2011-07-15 07:58:15 51°13.636 2°56.018 126 -999 204 6.7
2011-07-15 07:59:15 51°13.636 2°56.018 126.5 -999 49 6.8
2011-07-15 08:00:15 51°13.635 2°56.018 126.5 -999 22 6.8
2011-07-15 08:01:18 51°13.635 2°56.017 126.5 -999 38 -999
2011-07-15 08:02:17 51°13.635 2°56.017 126.5 -999 99 6.8
2011-07-15 08:03:16 51°13.635 2°56.017 126.6 -999 54 6.8
2011-07-15 08:04:18 51°13.635 2°56.017 126.5 -999 277 6.8
2011-07-15 08:05:17 51°13.633 2°56.016 126.5 -999 205 6.9
2011-07-15 08:06:15 51°13.633 2°56.016 126.6 -999 73 6.9
2011-07-15 08:07:15 51°13.634 2°56.017 126.7 -999 71 6.9
2011-07-15 08:08:15 51°13.635 2°56.017 126.7 -999 68 6.9
2011-07-15 08:09:15 51°13.635 2°56.018 126.7 -999 53 6.9
2011-07-15 08:10:15 51°13.635 2°56.017 126.7 -999 308 6.9
2011-07-15 08:11:16 51°13.636 2°56.018 126.7 -999 92 6.9
2011-07-15 08:12:15 51°13.636 2°56.017 126.8 -999 238 7
2011-07-15 08:13:15 51°13.636 2°56.018 126.9 -999 152 6.8
2011-07-15 08:14:15 51°13.636 2°56.018 121.7 -999 170 6.8
2011-07-15 08:15:15 51°13.635 2°56.018 113.2 0.1 258 6.7
2011-07-15 08:16:15 51°13.637 2°56.014 112.9 0.1 74 7.1
2011-07-15 08:17:15 51°13.638 2°56.015 122 -999 63 7.1
2011-07-15 08:18:15 51°13.638 2°56.015 126.9 -999 268 7.1
2011-07-15 08:19:15 51°13.638 2°56.016 126.6 -999 13 7.1
2011-07-15 08:20:15 51°13.637 2°56.016 119.7 0.1 193 7
2011-07-15 08:21:15 51°13.639 2°56.007 112.6 1.5 296 7.2
2011-07-15 08:22:18 51°13.66 2°55.934 111.9 3.4 293 -999
2011-07-15 08:23:18 51°13.689 2°55.836 116.9 4.4 297 -999
2011-07-15 08:24:18 51°13.731 2°55.74 132.5 4.6 311 -999
2011-07-15 08:25:18 51°13.794 2°55.663 155.2 5 334 -999
2011-07-15 08:26:18 51°13.881 2°55.634 181.3 5.5 359 -999
2011-07-15 08:27:18 51°13.945 2°55.645 198.1 2.4 12 4.7
2011-07-15 08:28:18 51°13.95 2°55.629 251.1 2.1 260 4.9
2011-07-15 08:29:17 51°13.979 2°55.56 325.9 4.5 330 10.7
2011-07-15 08:30:18 51°14.068 2°55.482 331.6 6.8 331 -999
2011-07-15 08:31:18 51°14.176 2°55.387 331.9 8.2 332 -999
2011-07-15 08:32:18 51°14.306 2°55.267 329.6 10.2 329 -999
2011-07-15 08:33:18 51°14.463 2°55.11 327.3 11.8 328 11
2011-07-15 08:34:16 51°14.627 2°54.927 331.5 12.5 324 11.8
2011-07-15 08:35:16 51°14.803 2°54.751 337.1 12.4 330 12.4
2011-07-15 08:36:17 51°14.98 2°54.575 333.2 12.5 326 10.1
2011-07-15 08:37:15 51°15.13 2°54.365 324.5 12.6 320 11.7
2011-07-15 08:38:16 51°15.288 2°54.144 324.8 12.5 320 -999
2011-07-15 08:39:15 51°15.446 2°53.94 326.7 12.4 321 11.5
2011-07-15 08:40:15 51°15.613 2°53.749 330.7 12.4 324 12.2
2011-07-15 08:41:15 51°15.783 2°53.555 329.3 12.5 322 11.6
2011-07-15 08:42:15 51°15.958 2°53.388 337 12.2 329 11.9
2011-07-15 08:43:15 51°16.135 2°53.238 339.3 12 332 12.1
2011-07-15 08:44:15 51°16.313 2°53.087 341.4 12.1 335 12.1
2011-07-15 08:45:15 51°16.496 2°52.948 338.5 12.2 334 12.2
2011-07-15 08:46:15 51°16.681 2°52.822 343.5 12.2 338 10.8
2011-07-15 08:47:15 51°16.864 2°52.702 340.8 11.8 335 9.2
2011-07-15 08:48:15 51°17.041 2°52.568 342.3 11.9 338 9.7
2011-07-15 08:49:15 51°17.208 2°52.41 325.8 12.1 319 10.3
2011-07-15 08:50:15 51°17.362 2°52.202 326.7 12.1 322 11.5
2011-07-15 08:51:15 51°17.521 2°52.001 329.9 12.2 324 10.5
2011-07-15 08:52:15 51°17.676 2°51.797 326.3 11.9 320 10
2011-07-15 08:53:15 51°17.832 2°51.601 327.8 12.2 321 10.2
2011-07-15 08:54:15 51°17.985 2°51.388 325.6 12.3 318 11.4
2011-07-15 08:55:15 51°18.136 2°51.163 324.4 12.4 318 12.4
2011-07-15 08:56:15 51°18.292 2°50.948 326.3 12.4 319 13.4
2011-07-15 08:57:15 51°18.446 2°50.728 326.4 12.2 319 13.8
2011-07-15 08:58:15 51°18.597 2°50.501 323.1 12.5 315 14.6
2011-07-15 08:59:15 51°18.749 2°50.271 325.8 12.5 320 14.8
2011-07-15 09:00:15 51°18.906 2°50.06 327.2 12.2 320 13
2011-07-15 09:01:15 51°19.061 2°49.839 323.7 12.5 318 10.8
2011-07-15 09:02:15 51°19.218 2°49.634 326 12.4 320 12.2
2011-07-15 09:03:15 51°19.372 2°49.411 323.9 12.3 318 14
2011-07-15 09:04:15 51°19.529 2°49.192 325.4 12.6 319 16.3
2011-07-15 09:05:15 51°19.686 2°48.964 323.1 12.7 315 18.3
2011-07-15 09:06:15 51°19.843 2°48.74 326.2 12.9 318 21.8
2011-07-15 09:07:15 51°19.998 2°48.515 325.8 12.5 318 23.2
2011-07-15 09:08:15 51°20.152 2°48.284 323.9 13 315 22.8
2011-07-15 09:09:15 51°20.307 2°48.049 325.5 12.9 317 21.8
2011-07-15 09:10:15 51°20.465 2°47.818 325.9 13 318 20.8
2011-07-15 09:11:15 51°20.622 2°47.591 325.4 12.5 318 18.2
2011-07-15 09:12:15 51°20.779 2°47.373 326.2 12.4 319 18.6
2011-07-15 09:13:15 51°20.934 2°47.155 324.7 12.3 319 22.1
2011-07-15 09:14:15 51°21.086 2°46.925 324.3 12.3 317 23.6
2011-07-15 09:15:15 51°21.246 2°46.711 326 12.6 320 24.1
2011-07-15 09:16:15 51°21.401 2°46.493 324 12.4 318 26.7
2011-07-15 09:17:15 51°21.544 2°46.263 318.6 12.4 312 26.1
2011-07-15 09:18:15 51°21.672 2°46.003 308.7 12.5 303 24.2
2011-07-15 09:19:15 51°21.778 2°45.713 306.4 12.7 299 23.3
2011-07-15 09:20:15 51°21.889 2°45.429 308 12.6 302 22.4
2011-07-15 09:21:15 51°21.999 2°45.146 307.9 12.6 300 23.4
2011-07-15 09:22:15 51°22.111 2°44.867 310 12.3 304 23.1
2011-07-15 09:23:15 51°22.224 2°44.584 308.7 12.7 303 24.8
2011-07-15 09:24:15 51°22.335 2°44.295 308.5 12.9 303 25.9
2011-07-15 09:25:15 51°22.449 2°44.005 307.6 12.9 301 25.5
2011-07-15 09:26:15 51°22.559 2°43.714 309.2 12.6 302 26.3
2011-07-15 09:27:15 51°22.651 2°43.473 312.8 7.9 305 26.1
2011-07-15 09:28:15 51°22.719 2°43.381 345.4 3.8 326 27.6
2011-07-15 09:29:15 51°22.725 2°43.348 9.5 1.6 220 25.7
2011-07-15 09:30:18 51°22.709 2°43.324 30.7 0.5 337 4.8
2011-07-15 09:31:17 51°22.71 2°43.347 78.8 1.7 89 26.3
2011-07-15 09:32:16 51°22.702 2°43.371 91.5 1.2 128 27.4
2011-07-15 09:33:15 51°22.679 2°43.388 121.8 1.5 168 27.9
2011-07-15 09:34:15 51°22.659 2°43.422 80.6 2.2 94 27.4
2011-07-15 09:35:15 51°22.694 2°43.443 0.8 3.8 346 26.2
2011-07-15 09:36:15 51°22.748 2°43.386 326.7 2.1 305 25.1
2011-07-15 09:37:16 51°22.74 2°43.368 309.6 0.8 204 -999
2011-07-15 09:38:18 51°22.725 2°43.359 324 1 196 -999
2011-07-15 09:39:17 51°22.71 2°43.35 326.3 1.1 196 24.7
2011-07-15 09:40:18 51°22.678 2°43.354 338.3 2 173 27.2
2011-07-15 09:41:16 51°22.654 2°43.346 351.8 0.8 242 25.3
2011-07-15 09:42:15 51°22.658 2°43.327 348.5 0.7 277 24.5
2011-07-15 09:43:15 51°22.657 2°43.305 334.8 0.9 262 25.3
2011-07-15 09:44:15 51°22.652 2°43.287 329.2 0.6 235 24.9
2011-07-15 09:45:15 51°22.647 2°43.266 328.8 1.4 273 24.4
2011-07-15 09:46:15 51°22.663 2°43.238 355.3 1.7 331 25.7
2011-07-15 09:47:15 51°22.679 2°43.226 10.2 0.7 322 25.8
2011-07-15 09:48:15 51°22.687 2°43.216 13 0.6 320 25.8
2011-07-15 09:49:15 51°22.695 2°43.215 34.4 0.5 19 25.4
2011-07-15 09:50:15 51°22.698 2°43.228 63.7 0.5 112 24.5
2011-07-15 09:51:15 51°22.693 2°43.241 71.4 0.8 136 24.9
2011-07-15 09:52:15 51°22.686 2°43.251 72.4 0.7 139 24.4
2011-07-15 09:53:15 51°22.679 2°43.259 77.5 0.8 151 25.5
2011-07-15 09:54:15 51°22.671 2°43.257 77.5 0.5 248 23.5
2011-07-15 09:55:15 51°22.66 2°43.234 80.3 1.2 236 26.4
2011-07-15 09:56:15 51°22.656 2°43.233 49.4 0.7 43 26.1
2011-07-15 09:57:15 51°22.671 2°43.233 358.3 0.9 330 25.7
2011-07-15 09:58:15 51°22.68 2°43.213 334.3 0.9 286 26.5
2011-07-15 09:59:15 51°22.68 2°43.196 328.9 0.8 256 27.4
2011-07-15 10:00:15 51°22.677 2°43.183 327.3 0.5 245 28.2
2011-07-15 10:01:15 51°22.673 2°43.176 325.9 0.5 219 27.8
2011-07-15 10:02:15 51°22.664 2°43.171 324.5 0.4 173 27.3
2011-07-15 10:03:15 51°22.657 2°43.165 327.9 0.6 259 27.1
2011-07-15 10:04:15 51°22.683 2°43.145 358.6 3.8 359 26.7
2011-07-15 10:05:15 51°22.711 2°43.23 95.2 5.4 109 25.5
2011-07-15 10:06:15 51°22.66 2°43.303 138.2 3.6 149 26
2011-07-15 10:07:15 51°22.615 2°43.333 152.3 2.5 161 25.6
2011-07-15 10:08:15 51°22.58 2°43.345 160.3 2 175 26.8
2011-07-15 10:09:15 51°22.551 2°43.35 165.7 1.5 180 26.5
2011-07-15 10:10:15 51°22.526 2°43.353 171.8 1.3 174 25.9
2011-07-15 10:11:15 51°22.503 2°43.355 176.9 1.6 178 24.9
2011-07-15 10:12:15 51°22.463 2°43.329 224 3.3 225 26
2011-07-15 10:13:15 51°22.452 2°43.245 299.3 3.2 290 27.1
2011-07-15 10:14:15 51°22.493 2°43.215 10.3 2.9 3 27.4
2011-07-15 10:15:15 51°22.55 2°43.226 5.9 4 4 25.6
2011-07-15 10:16:15 51°22.613 2°43.219 357.6 3.3 353 27.3
2011-07-15 10:17:15 51°22.655 2°43.208 355.2 1.8 352 27.1
2011-07-15 10:18:15 51°22.673 2°43.199 344.6 0.8 323 28
2011-07-15 10:19:15 51°22.678 2°43.191 326.5 0.3 264 27.8
2011-07-15 10:20:15 51°22.675 2°43.191 321 0.4 167 28.2
2011-07-15 10:21:15 51°22.67 2°43.198 334 0.4 353 27.9
2011-07-15 10:22:15 51°22.686 2°43.156 286.1 3.2 279 27.7
2011-07-15 10:23:15 51°22.653 2°43.086 207.7 3.5 199 28.1
2011-07-15 10:24:15 51°22.604 2°43.103 143.1 3.3 146 25.5
2011-07-15 10:25:15 51°22.559 2°43.167 130.9 3.8 132 27.6
2011-07-15 10:26:15 51°22.519 2°43.233 128.9 2.8 132 26.1
2011-07-15 10:27:15 51°22.492 2°43.287 110.3 2.4 113 26.9
2011-07-15 10:28:15 51°22.49 2°43.348 65.5 2.2 77 25.3
2011-07-15 10:29:15 51°22.512 2°43.383 17.3 1.9 21 27.1
2011-07-15 10:30:15 51°22.549 2°43.37 332 2.9 328 26.5
2011-07-15 10:31:15 51°22.592 2°43.324 326.1 2.5 325 27.3
2011-07-15 10:32:15 51°22.611 2°43.299 313.4 1.2 313 25.7
2011-07-15 10:33:15 51°22.622 2°43.284 310.4 0.7 314 25.6
2011-07-15 10:34:15 51°22.628 2°43.278 307.8 0.4 344 25.7
2011-07-15 10:35:15 51°22.632 2°43.28 309.2 0.3 27 25.6
2011-07-15 10:36:15 51°22.637 2°43.29 321 0.4 68 25.1
2011-07-15 10:37:15 51°22.639 2°43.303 328.4 0.6 103 27.8
2011-07-15 10:38:15 51°22.633 2°43.323 343.8 0.9 134 27.7
2011-07-15 10:39:15 51°22.619 2°43.341 356.8 1.5 150 26.4
2011-07-15 10:40:15 51°22.598 2°43.353 12.3 1.2 162 24.9
2011-07-15 10:41:15 51°22.581 2°43.363 22.3 1.1 148 25.5
2011-07-15 10:42:15 51°22.57 2°43.373 32.2 0.8 141 25.8
2011-07-15 10:43:15 51°22.563 2°43.385 34.5 0.6 115 25.2
2011-07-15 10:44:15 51°22.562 2°43.404 31.5 1 78 28.7
2011-07-15 10:45:15 51°22.565 2°43.425 21.7 1 84 28.9
2011-07-15 10:46:15 51°22.568 2°43.446 8.1 0.8 76 29.3
2011-07-15 10:47:15 51°22.573 2°43.465 355.1 0.8 66 28.7
2011-07-15 10:48:15 51°22.578 2°43.481 340.5 0.9 51 27.8
2011-07-15 10:49:15 51°22.589 2°43.494 334.8 0.7 25 27.6
2011-07-15 10:50:15 51°22.602 2°43.503 326.5 0.8 15 27.6
2011-07-15 10:51:15 51°22.615 2°43.51 320.4 0.8 27 26.4
2011-07-15 10:52:15 51°22.625 2°43.523 321.3 0.7 45 25.7
2011-07-15 10:53:15 51°22.632 2°43.542 324.3 0.7 64 25.7
2011-07-15 10:54:15 51°22.638 2°43.565 328.5 1 69 26.8
2011-07-15 10:55:15 51°22.644 2°43.591 335.6 1 76 26.7
2011-07-15 10:56:15 51°22.647 2°43.617 344.5 0.9 80 27.7
2011-07-15 10:57:15 51°22.651 2°43.644 349 0.9 66 27.7
2011-07-15 10:58:15 51°22.662 2°43.665 335.9 1 31 28.2
2011-07-15 10:59:15 51°22.677 2°43.679 318 1.3 23 29.5
2011-07-15 11:00:15 51°22.698 2°43.658 292.5 1.4 319 28.3
2011-07-15 11:01:15 51°22.712 2°43.649 292.3 0.7 3 28.6
2011-07-15 11:02:15 51°22.722 2°43.655 292.2 0.7 31 29.3
2011-07-15 11:03:15 51°22.733 2°43.67 299.8 1 45 28.3
2011-07-15 11:04:15 51°22.744 2°43.693 313.7 1.1 53 29
2011-07-15 11:05:15 51°22.752 2°43.722 327.4 1.5 66 26.8
2011-07-15 11:06:15 51°22.758 2°43.75 341.2 1.2 69 29.2
2011-07-15 11:07:15 51°22.765 2°43.781 349.1 1.5 75 28.7
2011-07-15 11:08:15 51°22.77 2°43.812 358 1.1 78 26.9
2011-07-15 11:09:15 51°22.775 2°43.843 4.4 1.3 60 29.1
2011-07-15 11:10:15 51°22.804 2°43.872 359 2.6 22 27.8
2011-07-15 11:11:15 51°22.85 2°43.888 345.6 2.8 1 28.8
2011-07-15 11:12:15 51°22.896 2°43.875 312.2 2.7 336 27.5
2011-07-15 11:13:15 51°22.916 2°43.827 262.4 1.8 260 29.4
2011-07-15 11:14:15 51°22.896 2°43.782 222.4 2.3 207 27.9
2011-07-15 11:15:15 51°22.863 2°43.772 199 1.8 173 29.5
2011-07-15 11:16:15 51°22.838 2°43.789 185.6 1.4 151 28.6
2011-07-15 11:17:15 51°22.822 2°43.818 183 1.4 125 29.3
2011-07-15 11:18:15 51°22.812 2°43.848 183.7 1.1 111 29.1
2011-07-15 11:19:15 51°22.808 2°43.878 186.5 1.1 103 28
2011-07-15 11:20:15 51°22.803 2°43.908 186.5 1.3 119 29.7
2011-07-15 11:21:15 51°22.784 2°43.938 182.1 2 142 29.6
2011-07-15 11:22:15 51°22.753 2°43.973 174.2 2.7 142 27.6
2011-07-15 11:23:15 51°22.715 2°44.018 165.4 3 142 28.3
2011-07-15 11:24:15 51°22.681 2°44.074 157 2.8 128 29
2011-07-15 11:25:15 51°22.656 2°44.129 157.1 2.5 122 29.2
2011-07-15 11:26:15 51°22.635 2°44.182 156.9 2.3 117 27.8
2011-07-15 11:27:15 51°22.617 2°44.267 103.9 4.7 87 28.6
2011-07-15 11:28:15 51°22.653 2°44.369 37.4 3.7 47 29.3
2011-07-15 11:29:15 51°22.693 2°44.42 13.6 3 31 28.1
2011-07-15 11:30:15 51°22.738 2°44.454 352.5 3 19 29.5
2011-07-15 11:31:15 51°22.785 2°44.467 329.7 2.6 -999 27.8
2011-07-15 11:32:15 51°22.813 2°44.437 266.7 1.9 280 28.3
2011-07-15 11:33:15 51°22.795 2°44.354 244.5 4.8 252 28.2
2011-07-15 11:34:15 51°22.763 2°44.213 249.5 6.2 254 27.9
2011-07-15 11:35:15 51°22.747 2°44.071 260.5 4.7 262 27.6
2011-07-15 11:36:15 51°22.754 2°43.96 270.3 4 278 29.1
2011-07-15 11:37:15 51°22.774 2°43.86 276.1 4 293 29.3
2011-07-15 11:38:15 51°22.792 2°43.759 273.6 3.9 281 29.8
2011-07-15 11:39:15 51°22.809 2°43.673 269.9 2.4 286 28.6
2011-07-15 11:40:15 51°22.818 2°43.633 260 1.1 298 29.1
2011-07-15 11:41:15 51°22.827 2°43.62 259.9 0.4 335 29.7
2011-07-15 11:42:15 51°22.838 2°43.623 259.4 0.9 12 28.1
2011-07-15 11:43:15 51°22.848 2°43.639 240.9 1.5 53 28.7
2011-07-15 11:44:16 51°22.866 2°43.684 218.8 2 56 -999
2011-07-15 11:45:16 51°22.881 2°43.725 205.7 1.6 69 28.3
2011-07-15 11:46:16 51°22.891 2°43.767 193.7 1.6 67 29.5
2011-07-15 11:47:16 51°22.902 2°43.811 181.5 1.8 71 28.4
2011-07-15 11:48:15 51°22.913 2°43.854 173.5 1.9 71 28.6
2011-07-15 11:49:15 51°22.922 2°43.899 170 1.8 71 29.7
2011-07-15 11:50:15 51°22.932 2°43.945 172.5 1.8 74 29.6
2011-07-15 11:51:15 51°22.939 2°43.989 177 1.6 74 28.5
2011-07-15 11:52:15 51°22.944 2°44.032 181.7 1.5 96 27.4
2011-07-15 11:53:15 51°22.932 2°44.087 151.6 2.8 113 28.4
2011-07-15 11:54:15 51°22.882 2°44.193 145.9 7.4 133 29.9
2011-07-15 11:55:14 51°22.772 2°44.355 148.8 10.1 136 29.2
2011-07-15 11:56:15 51°22.63 2°44.546 149 11.5 138 29.5
2011-07-15 11:57:14 51°22.485 2°44.744 144.9 11.8 136 28.7
2011-07-15 11:58:14 51°22.339 2°44.961 143.6 12.1 136 23.8
2011-07-15 11:59:14 51°22.194 2°45.178 143.1 11.8 138 26
2011-07-15 12:00:14 51°22.049 2°45.398 141.6 12 136 24.8
2011-07-15 12:01:14 51°21.9 2°45.614 142.4 11.8 134 24.6
2011-07-15 12:02:14 51°21.755 2°45.835 141.4 11.9 138 25.7
2011-07-15 12:03:15 51°21.61 2°46.06 143 11.7 138 27.7
2011-07-15 12:04:14 51°21.467 2°46.273 145.9 12.1 137 28.4
2011-07-15 12:05:15 51°21.323 2°46.499 145.3 12.4 137 28.5
2011-07-15 12:06:14 51°21.184 2°46.72 145.3 12.2 132 27.3
2011-07-15 12:07:15 51°21.042 2°46.95 144.7 11.9 136 25.8
2011-07-15 12:08:14 51°20.897 2°47.166 146.7 12.1 140 24.1
2011-07-15 12:09:14 51°20.75 2°47.39 144.7 12.3 136 20.6
2011-07-15 12:10:14 51°20.601 2°47.612 144.5 12 133 21
2011-07-15 12:11:14 51°20.459 2°47.842 142.2 12.5 128 23
2011-07-15 12:12:15 51°20.316 2°48.061 148.2 12 135 24.7
2011-07-15 12:13:14 51°20.177 2°48.269 144.9 11.8 138 25.5
2011-07-15 12:14:15 51°20.033 2°48.488 144.7 11.7 140 25
2011-07-15 12:15:14 51°19.895 2°48.702 144.8 12.1 131 24.2
2011-07-15 12:16:15 51°19.752 2°48.924 144.3 12 135 22.4
2011-07-15 12:17:14 51°19.614 2°49.141 142.4 11.6 134 19.7
2011-07-15 12:18:14 51°19.469 2°49.357 147.4 12.4 137 18.1
2011-07-15 12:19:14 51°19.324 2°49.576 144.8 11.9 139 16.2
2011-07-15 12:20:14 51°19.179 2°49.797 144.2 12.3 135 14.6
2011-07-15 12:21:15 51°19.031 2°50.02 144.5 12.1 135 15
2011-07-15 12:22:14 51°18.887 2°50.237 142.9 12 133 16.2
2011-07-15 12:23:15 51°18.738 2°50.458 144.1 12.1 135 17.6
2011-07-15 12:24:14 51°18.595 2°50.673 144.5 12.4 132 17.5
2011-07-15 12:25:14 51°18.454 2°50.897 142.1 12.4 139 16.9
2011-07-15 12:26:14 51°18.312 2°51.12 143.2 12 135 16.1
2011-07-15 12:27:14 51°18.171 2°51.34 144.4 11.8 138 14.8
2011-07-15 12:28:14 51°18.027 2°51.55 147.4 11.7 142 13.9
2011-07-15 12:29:14 51°17.881 2°51.752 145.7 11.5 140 13.2
2011-07-15 12:30:15 51°17.732 2°51.96 143.1 11.4 136 12.9
2011-07-15 12:31:14 51°17.595 2°52.179 144 11.7 140 14.4
2011-07-15 12:32:15 51°17.431 2°52.34 160.6 11.5 156 13.6
2011-07-15 12:33:14 51°17.262 2°52.464 160.5 11.4 153 13.3
2011-07-15 12:34:14 51°17.093 2°52.595 158.9 10.9 155 12.7
2011-07-15 12:35:14 51°16.924 2°52.728 159.7 11.5 152 12.6
2011-07-15 12:36:14 51°16.757 2°52.876 157.3 11.7 149 13.4
2011-07-15 12:37:14 51°16.59 2°53.026 161.3 12.3 153 14.9
2011-07-15 12:38:14 51°16.423 2°53.169 161.9 11.7 154 15.1
2011-07-15 12:39:15 51°16.251 2°53.288 164.5 11.5 156 15
2011-07-15 12:40:14 51°16.085 2°53.408 164.8 11.2 158 14.8
2011-07-15 12:41:15 51°15.91 2°53.521 167.2 10.8 161 14.4
2011-07-15 12:42:14 51°15.738 2°53.606 169.3 10.7 159 14.9
2011-07-15 12:43:14 51°15.566 2°53.722 161.2 11.4 152 15.4
2011-07-15 12:44:14 51°15.401 2°53.885 149.4 12.1 141 14.7
2011-07-15 12:45:14 51°15.261 2°54.108 139.5 11.6 135 14.7
2011-07-15 12:46:14 51°15.119 2°54.331 141.5 11.5 139 14.5
2011-07-15 12:47:16 51°14.973 2°54.56 140.2 11.9 127 14.7
2011-07-15 12:48:15 51°14.84 2°54.787 145.2 11.7 135 12.8
2011-07-15 12:49:14 51°14.689 2°54.972 157.3 11.9 148 13.1
2011-07-15 12:50:14 51°14.517 2°55.095 163.1 11.6 161 12.8
2011-07-15 12:51:16 51°14.334 2°55.235 152.1 11.8 154 -999
2011-07-15 12:52:18 51°14.16 2°55.375 153 10.2 154 -999
2011-07-15 12:53:18 51°14.028 2°55.474 154 7.9 155 14
2011-07-15 12:54:17 51°13.914 2°55.56 154.5 7.5 154 5
2011-07-15 12:55:18 51°13.805 2°55.647 149.6 7.2 149 -999
2011-07-15 12:56:18 51°13.722 2°55.763 131.8 6 132 -999
2011-07-15 12:57:17 51°13.67 2°55.873 123.2 4.7 122 12.4
2011-07-15 12:58:15 51°13.644 2°55.969 106.3 3.5 105 13.1
2011-07-15 12:59:14 51°13.636 2°56.014 115.7 0.4 110 10.2